createdAt,value
2023-02-28T00:00:59.724Z,-2.21
2023-02-28T00:02:31.284Z,-2.21
2023-02-28T00:04:03.259Z,-2.21
2023-02-28T00:05:34.933Z,-2.24
2023-02-28T00:07:06.593Z,-2.14
2023-02-28T00:08:39.312Z,-2.18
2023-02-28T00:10:14.906Z,-2.05
2023-02-28T00:11:46.448Z,-2.11
2023-02-28T00:13:18.071Z,-2.22
2023-02-28T00:14:50.414Z,-2.16
2023-02-28T00:16:23.492Z,-2.22
2023-02-28T00:17:55.564Z,-2.26
2023-02-28T00:19:27.208Z,-2.23
2023-02-28T00:20:59.309Z,-2.26
2023-02-28T00:22:31.077Z,-2.30
2023-02-28T00:24:02.740Z,-2.29
2023-02-28T00:25:36.662Z,-2.29
2023-02-28T00:27:08.450Z,-2.21
2023-02-28T00:28:39.998Z,-2.22
2023-02-28T00:30:15.562Z,-2.17
2023-02-28T00:31:47.126Z,-2.25
2023-02-28T00:33:18.800Z,-2.26
2023-02-28T00:34:50.532Z,-2.31
2023-02-28T00:36:22.114Z,-2.26
2023-02-28T00:37:53.666Z,-2.28
2023-02-28T00:39:25.232Z,-2.20
2023-02-28T00:40:57.061Z,-2.31
2023-02-28T00:42:29.410Z,-2.37
2023-02-28T00:44:01.070Z,-2.33
2023-02-28T00:45:32.725Z,-2.37
2023-02-28T00:47:04.525Z,-2.38
2023-02-28T00:48:37.718Z,-2.32
2023-02-28T00:50:10.421Z,-2.39
2023-02-28T00:51:42.195Z,-2.39
2023-02-28T00:53:13.752Z,-2.34
2023-02-28T00:54:45.297Z,-2.27
2023-02-28T00:56:17.164Z,-2.27
2023-02-28T00:57:48.772Z,-2.23
2023-02-28T00:59:20.575Z,-2.23
2023-02-28T01:00:53.728Z,-2.30
2023-02-28T01:02:25.395Z,-2.32
2023-02-28T01:03:58.126Z,-2.45
2023-02-28T01:05:29.771Z,-2.34
2023-02-28T01:07:02.154Z,-2.31
2023-02-28T01:08:34.005Z,-2.31
2023-02-28T01:10:05.951Z,-2.37
2023-02-28T01:11:38.944Z,-2.39
2023-02-28T01:13:11.418Z,-2.44
2023-02-28T01:14:43.595Z,-2.40
2023-02-28T01:16:16.433Z,-2.35
2023-02-28T01:17:48.008Z,-2.41
2023-02-28T01:19:19.594Z,-2.40
2023-02-28T01:20:53.335Z,-2.43
2023-02-28T01:22:25.073Z,-2.45
2023-02-28T01:23:58.885Z,-2.47
2023-02-28T01:25:30.803Z,-2.44
2023-02-28T01:27:02.441Z,-2.45
2023-02-28T01:28:34.868Z,-2.54
2023-02-28T01:30:08.343Z,-2.56
2023-02-28T01:31:40.803Z,-2.54
2023-02-28T01:33:13.609Z,-2.54
2023-02-28T01:34:45.152Z,-2.44
2023-02-28T01:36:20.136Z,-2.47
2023-02-28T01:37:51.885Z,-2.52
2023-02-28T01:39:24.119Z,-2.48
2023-02-28T01:40:56.182Z,-2.46
2023-02-28T01:42:27.797Z,-2.53
2023-02-28T01:44:06.998Z,-2.53
2023-02-28T01:45:38.841Z,-2.54
2023-02-28T01:47:10.616Z,-2.59
2023-02-28T01:48:47.408Z,-2.57
2023-02-28T01:50:23.289Z,-2.53
2023-02-28T01:51:57.754Z,-2.58
2023-02-28T01:53:35.915Z,-2.60
2023-02-28T01:55:10.486Z,-2.64
2023-02-28T01:56:54.500Z,-2.56
2023-02-28T01:58:26.104Z,-2.54
2023-02-28T02:00:05.853Z,-2.57
2023-02-28T02:01:44.824Z,-2.52
2023-02-28T02:03:20.954Z,-2.57
2023-02-28T02:05:04.334Z,-2.50
2023-02-28T02:06:43.257Z,-2.56
2023-02-28T02:08:22.578Z,-2.49
2023-02-28T02:10:15.692Z,-2.49
2023-02-28T02:11:48.887Z,-2.57
2023-02-28T02:13:45.055Z,-2.63
2023-02-28T02:15:31.441Z,-2.52
2023-02-28T02:17:26.219Z,-2.43
2023-02-28T02:19:18.017Z,-2.53
2023-02-28T02:21:03.060Z,-2.58
2023-02-28T02:22:46.357Z,-2.63
2023-02-28T02:24:51.435Z,-2.68
2023-02-28T02:26:31.712Z,-2.64
2023-02-28T02:28:37.095Z,-2.64
2023-02-28T02:30:27.128Z,-2.69
2023-02-28T02:32:21.511Z,-2.72
2023-02-28T02:34:16.917Z,-2.68
2023-02-28T02:35:51.746Z,-2.69
2023-02-28T02:38:04.750Z,-2.69
2023-02-28T02:39:39.911Z,-2.72
2023-02-28T02:41:16.728Z,-2.74
2023-02-28T02:43:04.400Z,-2.73
2023-02-28T02:44:56.847Z,-2.73
2023-02-28T02:46:37.980Z,-2.77
2023-02-28T02:48:14.169Z,-2.67
2023-02-28T02:49:53.094Z,-2.71
2023-02-28T02:51:26.314Z,-2.66
2023-02-28T02:53:02.264Z,-2.66
2023-02-28T02:54:38.204Z,-2.68
2023-02-28T02:56:12.257Z,-2.64
2023-02-28T02:57:54.765Z,-2.66
2023-02-28T02:59:29.280Z,-2.68
2023-02-28T03:01:04.634Z,-2.72
2023-02-28T03:02:39.146Z,-2.68
2023-02-28T03:04:17.545Z,-2.62
2023-02-28T03:05:51.358Z,-2.61
2023-02-28T03:07:22.998Z,-2.59
2023-02-28T03:08:54.977Z,-2.58
2023-02-28T03:10:28.108Z,-2.57
2023-02-28T03:12:00.417Z,-2.50
2023-02-28T03:14:10.986Z,-2.52
2023-02-28T03:15:58.786Z,-2.54
2023-02-28T03:17:50.778Z,-2.45
2023-02-28T03:19:47.299Z,-2.41
2023-02-28T03:21:18.831Z,-2.40
2023-02-28T03:22:58.553Z,-2.41
2023-02-28T03:24:42.817Z,-2.35
2023-02-28T03:26:24.696Z,-2.37
2023-02-28T03:28:05.722Z,-2.32
2023-02-28T03:29:45.176Z,-2.29
2023-02-28T03:31:27.271Z,-2.36
2023-02-28T03:33:02.232Z,-2.34
2023-02-28T03:34:40.072Z,-2.36
2023-02-28T03:36:15.811Z,-2.29
2023-02-28T03:37:48.900Z,-2.25
2023-02-28T03:39:27.097Z,-2.24
2023-02-28T03:41:10.133Z,-2.32
2023-02-28T03:42:46.218Z,-2.28
2023-02-28T03:44:25.354Z,-2.24
2023-02-28T03:46:00.047Z,-2.28
2023-02-28T03:47:54.489Z,-2.25
2023-02-28T03:49:33.340Z,-2.26
2023-02-28T03:51:11.666Z,-2.16
2023-02-28T03:52:47.967Z,-2.21
2023-02-28T03:54:23.070Z,-2.20
2023-02-28T03:56:02.586Z,-2.13
2023-02-28T03:57:54.226Z,-2.12
2023-02-28T03:59:31.754Z,-2.12
2023-02-28T04:01:19.981Z,-2.20
2023-02-28T04:02:53.619Z,-2.20
2023-02-28T04:04:25.551Z,-2.15
2023-02-28T04:06:01.253Z,-2.19
2023-02-28T04:07:33.195Z,-2.13
2023-02-28T04:09:06.188Z,-2.18
2023-02-28T04:10:37.814Z,-2.16
2023-02-28T04:12:09.950Z,-2.10
2023-02-28T04:13:41.636Z,-2.13
2023-02-28T04:15:13.267Z,-2.07
2023-02-28T04:16:45.350Z,-2.01
2023-02-28T04:18:16.984Z,-2.07
2023-02-28T04:19:48.559Z,-2.11
2023-02-28T04:21:21.735Z,-2.10
2023-02-28T04:22:53.277Z,-2.07
2023-02-28T04:24:27.193Z,-2.10
2023-02-28T04:25:58.983Z,-2.04
2023-02-28T04:27:32.676Z,-1.97
2023-02-28T04:29:06.442Z,-2.04
2023-02-28T04:30:39.156Z,-2.01
2023-02-28T04:32:11.388Z,-2.00
2023-02-28T04:33:43.440Z,-1.99
2023-02-28T04:35:15.088Z,-2.07
2023-02-28T04:37:10.363Z,-2.09
2023-02-28T04:38:43.697Z,-2.09
2023-02-28T04:40:15.350Z,-2.11
2023-02-28T04:41:47.468Z,-2.11
2023-02-28T04:43:18.964Z,-2.06
2023-02-28T04:44:50.602Z,-2.07
2023-02-28T04:46:22.230Z,-2.05
2023-02-28T04:47:54.574Z,-2.10
2023-02-28T04:49:26.426Z,-1.97
2023-02-28T04:51:02.786Z,-2.02
2023-02-28T04:52:34.355Z,-2.05
2023-02-28T04:54:06.750Z,-2.04
2023-02-28T04:55:41.057Z,-2.03
2023-02-28T04:57:12.709Z,-2.06
2023-02-28T04:58:44.758Z,-2.07
2023-02-28T05:00:17.773Z,-2.01
2023-02-28T05:01:50.365Z,-2.04
2023-02-28T05:03:23.108Z,-2.14
2023-02-28T05:04:54.725Z,-2.11
2023-02-28T05:06:28.433Z,-2.09
2023-02-28T05:08:00.276Z,-2.06
2023-02-28T05:09:33.848Z,-2.10
2023-02-28T05:11:11.363Z,-2.10
2023-02-28T05:12:42.905Z,-2.13
2023-02-28T05:14:15.247Z,-2.14
2023-02-28T05:15:47.004Z,-2.09
2023-02-28T05:17:18.591Z,-2.15
2023-02-28T05:18:50.290Z,-2.15
2023-02-28T05:20:22.173Z,-2.13
2023-02-28T05:21:55.699Z,-2.05
2023-02-28T05:23:27.452Z,-2.10
2023-02-28T05:24:59.100Z,-2.03
2023-02-28T05:26:31.498Z,-2.06
2023-02-28T05:28:03.163Z,-2.09
2023-02-28T05:29:35.208Z,-2.09
2023-02-28T05:31:06.864Z,-2.06
2023-02-28T05:32:39.618Z,-2.03
2023-02-28T05:34:13.394Z,-2.03
2023-02-28T05:35:45.668Z,-2.04
2023-02-28T05:37:17.668Z,-2.04
2023-02-28T05:38:50.186Z,-2.03
2023-02-28T05:40:21.795Z,-2.04
2023-02-28T05:41:53.396Z,-2.04
2023-02-28T05:43:25.269Z,-2.08
2023-02-28T05:44:56.877Z,-2.01
2023-02-28T05:46:28.433Z,-1.98
2023-02-28T05:48:00.139Z,-2.04
2023-02-28T05:49:31.717Z,-2.04
2023-02-28T05:51:03.880Z,-2.05
2023-02-28T05:52:35.526Z,-2.09
2023-02-28T05:54:07.703Z,-2.09
2023-02-28T05:55:39.356Z,-2.10
2023-02-28T05:57:22.791Z,-2.07
2023-02-28T05:58:55.846Z,-2.01
2023-02-28T06:00:27.517Z,-2.01
2023-02-28T06:01:59.188Z,-1.91
2023-02-28T06:03:30.953Z,-1.97
2023-02-28T06:05:02.700Z,-1.96
2023-02-28T06:06:37.904Z,-1.98
2023-02-28T06:08:09.487Z,-2.00
2023-02-28T06:09:41.178Z,-2.02
2023-02-28T06:11:13.336Z,-2.05
2023-02-28T06:12:44.910Z,-2.02
2023-02-28T06:14:21.194Z,-1.98
2023-02-28T06:15:52.785Z,-2.01
2023-02-28T06:17:24.407Z,-1.97
2023-02-28T06:18:58.566Z,-1.99
2023-02-28T06:20:30.436Z,-1.92
2023-02-28T06:22:02.118Z,-1.84
2023-02-28T06:23:33.768Z,-1.84
2023-02-28T06:25:06.396Z,-1.86
2023-02-28T06:26:38.127Z,-1.84
2023-02-28T06:28:09.699Z,-1.82
2023-02-28T06:29:41.305Z,-1.89
2023-02-28T06:31:15.600Z,-1.82
2023-02-28T06:32:50.205Z,-1.83
2023-02-28T06:34:21.750Z,-1.82
2023-02-28T06:35:53.918Z,-1.81
2023-02-28T06:37:28.478Z,-1.72
2023-02-28T06:39:00.099Z,-1.68
2023-02-28T06:40:35.082Z,-1.68
2023-02-28T06:42:06.896Z,-1.81
2023-02-28T06:43:41.722Z,-1.78
2023-02-28T06:45:13.829Z,-1.69
2023-02-28T06:46:46.450Z,-1.71
2023-02-28T06:48:18.917Z,-1.50
2023-02-28T06:49:51.273Z,-1.44
2023-02-28T06:51:23.540Z,-1.44
2023-02-28T06:52:56.535Z,-1.38
2023-02-28T06:54:28.359Z,-1.30
2023-02-28T06:56:00.354Z,-1.35
2023-02-28T06:57:33.399Z,-1.40
2023-02-28T06:59:05.371Z,-1.31
2023-02-28T07:00:37.003Z,-1.28
2023-02-28T07:02:09.315Z,-1.28
2023-02-28T07:03:41.379Z,-1.25
2023-02-28T07:05:12.947Z,-1.35
2023-02-28T07:06:44.516Z,-1.33
2023-02-28T07:08:16.520Z,-1.39
2023-02-28T07:09:48.209Z,-1.36
2023-02-28T07:11:20.962Z,-1.34
2023-02-28T07:12:52.696Z,-1.36
2023-02-28T07:14:24.382Z,-1.37
2023-02-28T07:15:55.902Z,-1.37
2023-02-28T07:17:27.479Z,-1.34
2023-02-28T07:18:59.176Z,-1.41
2023-02-28T07:20:31.115Z,-1.32
2023-02-28T07:22:03.790Z,-1.31
2023-02-28T07:23:36.342Z,-1.29
2023-02-28T07:25:08.595Z,-1.40
2023-02-28T07:26:40.152Z,-1.36
2023-02-28T07:28:11.800Z,-1.33
2023-02-28T07:29:43.371Z,-1.24
2023-02-28T07:31:16.072Z,-1.18
2023-02-28T07:32:47.917Z,-1.22
2023-02-28T07:34:20.653Z,-1.14
2023-02-28T07:35:52.340Z,-1.09
2023-02-28T07:37:24.023Z,-1.12
2023-02-28T07:38:55.938Z,-1.17
2023-02-28T07:40:27.920Z,-1.17
2023-02-28T07:42:00.684Z,-1.16
2023-02-28T07:43:33.308Z,-1.05
2023-02-28T07:45:06.275Z,-1.14
2023-02-28T07:46:38.035Z,-1.16
2023-02-28T07:48:11.129Z,-1.15
2023-02-28T07:49:42.850Z,-1.08
2023-02-28T07:51:14.612Z,-1.04
2023-02-28T07:52:46.294Z,-1.08
2023-02-28T07:54:17.982Z,-1.10
2023-02-28T07:55:49.966Z,-1.04
2023-02-28T07:57:21.515Z,-1.13
2023-02-28T07:58:53.387Z,-1.12
2023-02-28T08:00:25.104Z,-1.03
2023-02-28T08:01:58.926Z,-0.99
2023-02-28T08:03:30.625Z,-1.07
2023-02-28T08:05:02.616Z,-1.01
2023-02-28T08:06:34.584Z,-0.94
2023-02-28T08:08:06.271Z,-0.90
2023-02-28T08:09:38.044Z,-0.95
2023-02-28T08:11:09.670Z,-0.94
2023-02-28T08:12:41.277Z,-0.95
2023-02-28T08:14:12.923Z,-0.94
2023-02-28T08:15:46.297Z,-0.84
2023-02-28T08:17:17.926Z,-0.90
2023-02-28T08:19:19.219Z,-0.82
2023-02-28T08:20:50.976Z,-0.81
2023-02-28T08:22:22.883Z,-0.80
2023-02-28T08:23:54.594Z,-0.75
2023-02-28T08:25:26.283Z,-0.71
2023-02-28T08:26:57.972Z,-0.72
2023-02-28T08:28:29.635Z,-0.87
2023-02-28T08:30:01.330Z,-0.80
2023-02-28T08:31:33.206Z,-0.86
2023-02-28T08:33:04.981Z,-0.84
2023-02-28T08:34:36.651Z,-0.80
2023-02-28T08:36:09.631Z,-0.79
2023-02-28T08:37:41.328Z,-0.81
2023-02-28T08:39:13.505Z,-0.69
2023-02-28T08:40:45.116Z,-0.64
2023-02-28T08:42:16.721Z,-0.64
2023-02-28T08:43:48.321Z,-0.72
2023-02-28T08:45:20.042Z,-0.66
2023-02-28T08:46:51.721Z,-0.62
2023-02-28T08:48:24.720Z,-0.56
2023-02-28T08:49:56.313Z,-0.51
2023-02-28T08:51:29.645Z,-0.53
2023-02-28T08:53:01.571Z,-0.36
2023-02-28T08:54:34.967Z,-0.32
2023-02-28T08:56:10.059Z,-0.31
2023-02-28T08:57:41.703Z,-0.23
2023-02-28T08:59:13.371Z,-0.33
2023-02-28T09:00:45.095Z,-0.40
2023-02-28T09:02:16.747Z,-0.27
2023-02-28T09:03:50.417Z,-0.17
2023-02-28T09:05:22.062Z,-0.14
2023-02-28T09:06:53.784Z,-0.06
2023-02-28T09:08:28.002Z,0.00
2023-02-28T09:09:59.680Z,0.05
2023-02-28T09:11:31.496Z,-0.05
2023-02-28T09:13:03.102Z,0.07
2023-02-28T09:14:34.727Z,0.10
2023-02-28T09:16:10.002Z,-0.03
2023-02-28T09:17:42.444Z,-0.03
2023-02-28T09:19:14.589Z,-0.13
2023-02-28T09:20:46.713Z,-0.13
2023-02-28T09:22:18.325Z,-0.23
2023-02-28T09:23:51.450Z,-0.07
2023-02-28T09:25:23.182Z,0.10
2023-02-28T09:27:04.097Z,0.03
2023-02-28T09:28:36.182Z,0.06
2023-02-28T09:30:08.704Z,0.23
2023-02-28T09:31:40.326Z,0.25
2023-02-28T09:33:12.021Z,0.02
2023-02-28T09:34:43.817Z,-0.05
2023-02-28T09:36:15.666Z,0.07
2023-02-28T09:37:47.859Z,0.11
2023-02-28T09:39:19.469Z,0.29
2023-02-28T09:40:57.209Z,0.32
2023-02-28T09:42:32.803Z,0.43
2023-02-28T09:44:05.515Z,0.54
2023-02-28T09:45:42.286Z,0.24
2023-02-28T09:47:34.112Z,0.37
2023-02-28T09:49:08.927Z,0.23
2023-02-28T09:50:46.503Z,0.24
2023-02-28T09:52:20.377Z,0.38
2023-02-28T09:53:56.705Z,0.65
2023-02-28T09:55:48.007Z,0.57
2023-02-28T09:57:42.138Z,0.67
2023-02-28T09:59:39.703Z,0.97
2023-02-28T10:01:27.075Z,1.00
2023-02-28T10:03:17.695Z,0.86
2023-02-28T10:05:00.616Z,0.81
2023-02-28T10:06:45.836Z,1.17
2023-02-28T10:08:42.389Z,1.17
2023-02-28T10:10:49.465Z,0.78
2023-02-28T10:12:21.254Z,0.35
2023-02-28T10:14:03.690Z,0.57
2023-02-28T10:15:36.932Z,0.75
2023-02-28T10:17:16.395Z,0.69
2023-02-28T10:18:52.629Z,0.82
2023-02-28T10:20:30.898Z,1.07
2023-02-28T10:22:05.828Z,1.37
2023-02-28T10:23:38.755Z,1.24
2023-02-28T10:25:31.084Z,1.14
2023-02-28T10:27:12.529Z,1.41
2023-02-28T10:28:44.835Z,1.54
2023-02-28T10:30:16.541Z,1.49
2023-02-28T10:31:48.188Z,1.46
2023-02-28T10:33:29.349Z,1.46
2023-02-28T10:35:10.628Z,1.71
2023-02-28T10:36:44.777Z,1.66
2023-02-28T10:38:24.631Z,0.88
2023-02-28T10:39:57.294Z,1.37
2023-02-28T10:41:35.672Z,1.56
2023-02-28T10:43:13.627Z,1.77
2023-02-28T10:44:45.364Z,1.96
2023-02-28T10:46:26.994Z,1.78
2023-02-28T10:48:03.720Z,1.82
2023-02-28T10:49:35.804Z,2.09
2023-02-28T10:51:12.172Z,2.37
2023-02-28T10:52:44.215Z,2.40
2023-02-28T10:54:29.137Z,2.68
2023-02-28T10:56:01.810Z,2.46
2023-02-28T10:57:39.408Z,2.50
2023-02-28T10:59:16.764Z,2.61
2023-02-28T11:00:48.582Z,2.62
2023-02-28T11:04:40.985Z,3.03
2023-02-28T11:06:25.962Z,3.21
2023-02-28T11:08:07.889Z,2.95
2023-02-28T11:09:41.689Z,2.95
2023-02-28T11:11:13.485Z,2.75
2023-02-28T11:12:52.346Z,2.80
2023-02-28T11:14:48.558Z,3.39
2023-02-28T11:16:21.406Z,3.13
2023-02-28T11:18:20.387Z,3.02
2023-02-28T11:19:56.010Z,3.36
2023-02-28T11:21:34.963Z,2.98
2023-02-28T11:23:13.484Z,3.59
2023-02-28T11:24:48.899Z,3.97
2023-02-28T11:26:38.271Z,3.60
2023-02-28T11:28:28.258Z,3.54
2023-02-28T11:30:00.959Z,4.00
2023-02-28T11:31:33.356Z,4.06
2023-02-28T11:33:29.851Z,4.32
2023-02-28T11:35:36.171Z,4.03
2023-02-28T11:37:16.552Z,3.07
2023-02-28T11:38:50.573Z,3.21
2023-02-28T11:40:44.545Z,3.50
2023-02-28T11:42:35.036Z,3.28
2023-02-28T11:44:12.405Z,3.67
2023-02-28T11:46:05.620Z,4.26
2023-02-28T11:47:46.055Z,5.00
2023-02-28T11:49:33.224Z,5.03
2023-02-28T11:51:05.198Z,5.27
2023-02-28T11:52:48.642Z,5.04
2023-02-28T11:54:34.614Z,4.57
2023-02-28T11:56:24.596Z,3.50
2023-02-28T11:58:34.167Z,4.41
2023-02-28T12:00:17.719Z,3.81
2023-02-28T12:02:21.592Z,4.06
2023-02-28T12:04:18.132Z,4.12
2023-02-28T12:05:52.594Z,4.09
2023-02-28T12:07:41.104Z,4.21
2023-02-28T12:09:33.796Z,4.40
2023-02-28T12:11:40.930Z,4.22
2023-02-28T12:13:33.452Z,4.61
2023-02-28T12:15:32.581Z,4.20
2023-02-28T12:17:11.552Z,4.18
2023-02-28T12:19:01.292Z,4.20
2023-02-28T12:20:47.490Z,3.87
2023-02-28T12:22:22.246Z,3.50
2023-02-28T12:24:11.620Z,3.41
2023-02-28T12:25:50.152Z,4.09
2023-02-28T12:27:27.743Z,3.96
2023-02-28T12:29:25.137Z,3.97
2023-02-28T12:31:06.862Z,3.35
2023-02-28T12:32:46.846Z,3.52
2023-02-28T12:34:28.610Z,4.05
2023-02-28T12:36:06.002Z,4.02
2023-02-28T12:37:44.098Z,3.85
2023-02-28T12:39:31.163Z,3.62
2023-02-28T12:41:08.809Z,3.46
2023-02-28T12:42:50.377Z,3.03
2023-02-28T12:44:47.526Z,3.23
2023-02-28T12:46:24.740Z,3.07
2023-02-28T12:48:06.916Z,3.29
2023-02-28T12:49:57.677Z,3.41
2023-02-28T12:51:30.468Z,3.32
2023-02-28T12:53:18.706Z,3.25
2023-02-28T12:54:58.337Z,3.35
2023-02-28T12:56:46.107Z,3.29
2023-02-28T12:58:52.844Z,3.32
2023-02-28T13:00:29.815Z,3.30
2023-02-28T13:02:46.644Z,3.39
2023-02-28T13:04:42.087Z,3.49
2023-02-28T13:06:21.120Z,3.29
2023-02-28T13:07:52.784Z,3.36
2023-02-28T13:09:24.583Z,3.48
2023-02-28T13:10:56.321Z,3.51
2023-02-28T13:12:28.195Z,3.50
2023-02-28T13:14:02.935Z,3.53
2023-02-28T13:15:39.202Z,3.69
2023-02-28T13:17:10.799Z,3.60
2023-02-28T13:18:47.854Z,3.73
2023-02-28T13:20:26.035Z,4.01
2023-02-28T13:21:59.551Z,4.18
2023-02-28T13:23:48.145Z,4.22
2023-02-28T13:25:22.737Z,4.20
2023-02-28T13:27:03.130Z,4.11
2023-02-28T13:28:50.126Z,4.22
2023-02-28T13:30:56.840Z,4.07
2023-02-28T13:32:35.190Z,3.87
2023-02-28T13:34:15.485Z,3.71
2023-02-28T13:35:47.635Z,3.89
2023-02-28T13:37:19.171Z,3.85
2023-02-28T13:38:54.889Z,3.81
2023-02-28T13:40:37.723Z,3.91
2023-02-28T13:42:38.475Z,3.85
2023-02-28T13:44:14.405Z,3.82
2023-02-28T13:46:11.753Z,3.84
2023-02-28T13:47:55.549Z,4.06
2023-02-28T13:49:29.802Z,4.00
2023-02-28T13:51:21.402Z,4.10
2023-02-28T13:53:01.927Z,4.19
2023-02-28T13:54:59.975Z,4.09
2023-02-28T13:56:50.610Z,4.10
2023-02-28T13:58:55.261Z,3.91
2023-02-28T14:00:55.753Z,3.99
2023-02-28T14:02:46.194Z,3.79
2023-02-28T14:04:33.743Z,3.92
2023-02-28T14:06:17.914Z,3.97
2023-02-28T14:07:54.330Z,3.90
2023-02-28T14:09:29.968Z,4.02
2023-02-28T14:11:08.151Z,4.17
2023-02-28T14:13:02.250Z,4.18
2023-02-28T14:14:36.727Z,4.29
2023-02-28T14:16:10.002Z,4.79
2023-02-28T14:17:41.906Z,6.74
2023-02-28T14:19:27.301Z,8.28
2023-02-28T14:21:04.738Z,9.56
2023-02-28T14:22:52.997Z,9.33
2023-02-28T14:24:33.779Z,8.71
2023-02-28T14:26:14.681Z,9.37
2023-02-28T14:28:23.296Z,8.73
2023-02-28T14:30:31.191Z,8.04
2023-02-28T14:32:25.353Z,8.73
2023-02-28T14:34:29.124Z,8.12
2023-02-28T14:36:21.475Z,6.65
2023-02-28T14:37:54.668Z,6.30
2023-02-28T14:39:28.667Z,6.03
2023-02-28T14:41:07.108Z,5.95
2023-02-28T14:42:42.707Z,5.40
2023-02-28T14:44:28.478Z,5.28
2023-02-28T14:46:03.494Z,5.20
2023-02-28T14:47:37.129Z,4.98
2023-02-28T14:49:19.676Z,4.96
2023-02-28T14:50:57.479Z,4.82
2023-02-28T14:52:32.760Z,4.76
2023-02-28T14:54:05.229Z,4.85
2023-02-28T14:55:37.576Z,4.82
2023-02-28T14:57:29.162Z,4.61
2023-02-28T14:59:00.850Z,4.69
2023-02-28T15:00:34.679Z,4.71
2023-02-28T15:02:24.919Z,4.64
2023-02-28T15:04:06.900Z,4.72
2023-02-28T15:05:38.703Z,4.58
2023-02-28T15:07:11.872Z,4.64
2023-02-28T15:08:43.406Z,4.60
2023-02-28T15:10:25.669Z,4.67
2023-02-28T15:11:57.545Z,4.70
2023-02-28T15:13:46.132Z,4.74
2023-02-28T15:15:18.682Z,4.77
2023-02-28T15:16:59.065Z,4.69
2023-02-28T15:18:49.199Z,4.69
2023-02-28T15:20:21.509Z,4.47
2023-02-28T15:22:07.611Z,4.42
2023-02-28T15:23:43.694Z,4.41
2023-02-28T15:25:20.845Z,4.43
2023-02-28T15:26:57.983Z,4.45
2023-02-28T15:28:30.670Z,4.29
2023-02-28T15:30:09.089Z,4.37
2023-02-28T15:31:56.457Z,4.43
2023-02-28T15:33:31.924Z,4.42
2023-02-28T15:35:25.771Z,4.37
2023-02-28T15:36:57.366Z,4.34
2023-02-28T15:38:29.118Z,4.36
2023-02-28T15:40:29.171Z,4.35
2023-02-28T15:42:33.365Z,4.37
2023-02-28T15:44:30.765Z,4.43
2023-02-28T15:46:05.404Z,4.27
2023-02-28T15:47:37.274Z,4.26
2023-02-28T15:49:20.070Z,4.16
2023-02-28T15:51:08.043Z,4.21
2023-02-28T15:52:45.568Z,4.15
2023-02-28T15:54:36.068Z,4.13
2023-02-28T15:56:19.864Z,4.17
2023-02-28T15:57:55.081Z,4.19
2023-02-28T15:59:31.165Z,4.24
2023-02-28T16:01:05.766Z,4.21
2023-02-28T16:02:38.953Z,4.14
2023-02-28T16:04:13.364Z,4.12
2023-02-28T16:05:45.123Z,4.00
2023-02-28T16:07:16.825Z,4.02
2023-02-28T16:08:49.881Z,3.93
2023-02-28T16:10:26.096Z,4.08
2023-02-28T16:12:02.537Z,4.01
2023-02-28T16:13:34.475Z,4.01
2023-02-28T16:15:31.995Z,3.90
2023-02-28T16:17:06.870Z,3.95
2023-02-28T16:18:38.468Z,3.87
2023-02-28T16:20:19.621Z,3.84
2023-02-28T16:21:51.346Z,3.72
2023-02-28T16:23:23.016Z,3.78
2023-02-28T16:24:55.010Z,3.69
2023-02-28T16:26:28.440Z,3.68
2023-02-28T16:28:01.461Z,3.59
2023-02-28T16:29:36.116Z,3.57
2023-02-28T16:31:08.645Z,3.57
2023-02-28T16:32:40.411Z,3.59
2023-02-28T16:34:12.020Z,3.48
2023-02-28T16:35:43.663Z,3.45
2023-02-28T16:37:18.480Z,3.40
2023-02-28T16:38:51.402Z,3.35
2023-02-28T16:40:26.419Z,3.40
2023-02-28T16:41:58.084Z,3.34
2023-02-28T16:43:30.310Z,3.26
2023-02-28T16:45:02.133Z,3.22
2023-02-28T16:46:37.435Z,3.36
2023-02-28T16:48:14.654Z,3.24
2023-02-28T16:49:46.438Z,3.16
2023-02-28T16:51:18.923Z,3.23
2023-02-28T16:52:53.146Z,3.22
2023-02-28T16:54:24.918Z,3.11
2023-02-28T16:55:56.709Z,3.11
2023-02-28T16:57:28.348Z,3.04
2023-02-28T16:59:02.534Z,2.96
2023-02-28T17:00:34.546Z,2.89
2023-02-28T17:02:13.471Z,2.88
2023-02-28T17:03:45.255Z,2.85
2023-02-28T17:05:18.277Z,2.80
2023-02-28T17:06:49.966Z,2.81
2023-02-28T17:08:21.820Z,2.79
2023-02-28T17:09:53.448Z,2.73
2023-02-28T17:11:25.892Z,2.65
2023-02-28T17:13:06.119Z,2.70
2023-02-28T17:14:41.299Z,2.59
2023-02-28T17:16:34.562Z,2.54
2023-02-28T17:18:07.426Z,2.54
2023-02-28T17:19:42.519Z,2.52
2023-02-28T17:21:16.143Z,2.40
2023-02-28T17:22:47.776Z,2.43
2023-02-28T17:24:30.318Z,2.43
2023-02-28T17:26:03.740Z,2.38
2023-02-28T17:27:38.747Z,2.41
2023-02-28T17:29:17.280Z,2.30
2023-02-28T17:30:49.470Z,2.27
2023-02-28T17:32:21.142Z,2.24
2023-02-28T17:33:53.259Z,2.22
2023-02-28T17:35:25.183Z,2.18
2023-02-28T17:36:56.927Z,2.09
2023-02-28T17:38:30.373Z,2.11
2023-02-28T17:40:02.421Z,2.10
2023-02-28T17:41:34.109Z,2.22
2023-02-28T17:43:05.778Z,2.08
2023-02-28T17:44:38.650Z,2.17
2023-02-28T17:46:30.788Z,2.11
2023-02-28T17:48:03.004Z,2.01
2023-02-28T17:49:34.923Z,1.96
2023-02-28T17:51:06.982Z,1.80
2023-02-28T17:52:39.126Z,1.82
2023-02-28T17:54:12.742Z,1.98
2023-02-28T17:55:44.430Z,1.93
2023-02-28T17:57:17.352Z,1.87
2023-02-28T17:58:49.024Z,1.83
2023-02-28T18:00:21.190Z,1.81
2023-02-28T18:01:52.981Z,1.87
2023-02-28T18:03:25.386Z,1.79
2023-02-28T18:04:58.909Z,1.76
2023-02-28T18:06:52.129Z,1.67
2023-02-28T18:08:24.128Z,1.64
2023-02-28T18:09:55.869Z,1.53
2023-02-28T18:11:43.523Z,1.51
2023-02-28T18:13:15.283Z,1.44
2023-02-28T18:14:48.747Z,1.35
2023-02-28T18:16:24.603Z,1.44
2023-02-28T18:17:59.337Z,1.56
2023-02-28T18:19:31.167Z,1.52
2023-02-28T18:21:06.015Z,1.57
2023-02-28T18:22:39.380Z,1.56
2023-02-28T18:24:13.100Z,1.47
2023-02-28T18:25:47.058Z,1.37
2023-02-28T18:27:18.748Z,1.42
2023-02-28T18:28:50.420Z,1.34
2023-02-28T18:30:22.879Z,1.30
2023-02-28T18:31:56.469Z,1.25
2023-02-28T18:33:28.180Z,1.24
2023-02-28T18:34:59.830Z,1.10
2023-02-28T18:36:31.994Z,1.11
2023-02-28T18:38:06.423Z,1.04
2023-02-28T18:39:38.226Z,1.06
2023-02-28T18:41:10.246Z,1.10
2023-02-28T18:42:41.940Z,1.07
2023-02-28T18:44:19.929Z,1.14
2023-02-28T18:45:52.215Z,1.02
2023-02-28T18:47:23.821Z,1.00
2023-02-28T18:48:55.970Z,0.98
2023-02-28T18:50:27.630Z,0.95
2023-02-28T18:51:59.844Z,0.93
2023-02-28T18:53:31.466Z,0.94
2023-02-28T18:55:03.164Z,0.95
2023-02-28T18:56:34.817Z,1.00
2023-02-28T18:58:06.777Z,0.92
2023-02-28T18:59:38.439Z,1.15
2023-02-28T19:01:33.570Z,1.02
2023-02-28T19:03:05.228Z,1.09
2023-02-28T19:04:36.913Z,0.90
2023-02-28T19:06:09.339Z,0.79
2023-02-28T19:07:41.206Z,0.72
2023-02-28T19:09:12.889Z,0.76
2023-02-28T19:10:44.771Z,0.69
2023-02-28T19:12:17.585Z,0.77
2023-02-28T19:13:49.472Z,0.81
2023-02-28T19:15:21.197Z,0.77
2023-02-28T19:16:53.029Z,0.84
2023-02-28T19:18:24.748Z,0.79
2023-02-28T19:19:56.337Z,0.92
2023-02-28T19:21:27.872Z,0.88
2023-02-28T19:23:00.628Z,0.81
2023-02-28T19:24:33.173Z,0.79
2023-02-28T19:26:08.905Z,0.81
2023-02-28T19:27:40.732Z,0.89
2023-02-28T19:29:12.459Z,0.88
2023-02-28T19:30:53.071Z,0.90
2023-02-28T19:32:26.512Z,0.86
2023-02-28T19:33:59.177Z,0.84
2023-02-28T19:35:30.956Z,0.80
2023-02-28T19:37:02.708Z,0.75
2023-02-28T19:38:34.378Z,0.66
2023-02-28T19:40:08.941Z,0.67
2023-02-28T19:41:40.635Z,0.64
2023-02-28T19:43:12.316Z,0.52
2023-02-28T19:44:45.072Z,0.66
2023-02-28T19:46:16.980Z,0.54
2023-02-28T19:47:48.827Z,0.63
2023-02-28T19:49:20.641Z,0.67
2023-02-28T19:51:07.203Z,0.66
2023-02-28T19:52:38.972Z,0.53
2023-02-28T19:54:10.885Z,0.55
2023-02-28T19:55:42.600Z,0.57
2023-02-28T19:57:14.717Z,0.48
2023-02-28T19:58:46.475Z,0.47
2023-02-28T20:00:19.369Z,0.44
2023-02-28T20:01:54.608Z,0.56
2023-02-28T20:03:26.295Z,0.52
2023-02-28T20:05:01.206Z,0.74
2023-02-28T20:06:34.051Z,0.68
2023-02-28T20:08:07.097Z,0.54
2023-02-28T20:09:38.976Z,0.47
2023-02-28T20:11:15.806Z,0.42
2023-02-28T20:12:47.409Z,0.66
2023-02-28T20:14:19.112Z,0.74
2023-02-28T20:15:50.958Z,0.75
2023-02-28T20:17:24.089Z,0.70
2023-02-28T20:18:55.838Z,0.55
2023-02-28T20:20:27.608Z,0.59
2023-02-28T20:22:00.977Z,0.53
2023-02-28T20:23:32.807Z,0.58
2023-02-28T20:25:06.411Z,0.57
2023-02-28T20:26:40.922Z,0.52
2023-02-28T20:28:12.798Z,0.53
2023-02-28T20:29:44.621Z,0.56
2023-02-28T20:31:24.727Z,0.68
2023-02-28T20:32:56.624Z,0.57
2023-02-28T20:34:28.698Z,0.50
2023-02-28T20:36:01.960Z,0.53
2023-02-28T20:37:33.636Z,0.60
2023-02-28T20:39:05.523Z,0.49
2023-02-28T20:40:38.513Z,0.47
2023-02-28T20:42:10.446Z,0.40
2023-02-28T20:43:42.628Z,0.33
2023-02-28T20:45:14.457Z,0.26
2023-02-28T20:46:46.351Z,0.31
2023-02-28T20:48:18.087Z,0.27
2023-02-28T20:49:49.810Z,0.49
2023-02-28T20:51:21.881Z,0.49
2023-02-28T20:52:53.594Z,0.39
2023-02-28T20:54:25.289Z,0.43
2023-02-28T20:56:02.680Z,0.49
2023-02-28T20:57:34.331Z,0.40
2023-02-28T20:59:06.212Z,0.32
2023-02-28T21:00:37.905Z,0.26
2023-02-28T21:02:22.285Z,0.32
2023-02-28T21:04:08.209Z,0.45
2023-02-28T21:05:39.905Z,0.33
2023-02-28T21:07:11.697Z,0.33
2023-02-28T21:08:43.949Z,0.15